createdAt,value
2018-03-11T00:03:34.347Z,79.50
2018-03-11T00:06:05.694Z,80.30
2018-03-11T00:08:37.247Z,80.50
2018-03-11T00:11:08.446Z,80.80
2018-03-11T00:13:39.705Z,80.30
2018-03-11T00:16:10.881Z,81.00
2018-03-11T00:18:42.253Z,80.60
2018-03-11T00:21:13.441Z,80.20
2018-03-11T00:23:44.774Z,80.70
2018-03-11T00:26:15.965Z,79.70
2018-03-11T00:28:47.201Z,79.70
2018-03-11T00:31:18.388Z,81.20
2018-03-11T00:33:49.625Z,80.00
2018-03-11T00:36:20.859Z,79.90
2018-03-11T00:38:52.088Z,79.70
2018-03-11T00:41:23.310Z,80.00
2018-03-11T00:43:54.785Z,80.70
2018-03-11T00:46:26.017Z,79.70
2018-03-11T00:48:57.250Z,79.70
2018-03-11T00:51:28.428Z,80.20
2018-03-11T00:53:59.679Z,80.20
2018-03-11T00:56:30.882Z,80.30
2018-03-11T00:59:02.089Z,80.50
2018-03-11T01:01:33.272Z,80.10
2018-03-11T01:04:04.475Z,79.90
2018-03-11T01:06:35.692Z,80.30
2018-03-11T01:09:06.940Z,80.00
2018-03-11T01:11:38.161Z,80.00
2018-03-11T01:14:09.396Z,80.30
2018-03-11T01:16:40.591Z,80.10
2018-03-11T01:19:11.918Z,79.70
2018-03-11T01:21:43.132Z,80.00
2018-03-11T01:24:14.520Z,79.50
2018-03-11T01:26:46.036Z,79.40
2018-03-11T01:29:17.228Z,79.40
2018-03-11T01:31:48.448Z,80.20
2018-03-11T01:34:19.634Z,79.50
2018-03-11T01:36:51.627Z,79.40
2018-03-11T01:39:22.885Z,79.40
2018-03-11T01:41:54.120Z,79.50
2018-03-11T01:44:25.354Z,79.40
2018-03-11T01:46:56.569Z,79.30
2018-03-11T01:49:27.786Z,79.50
2018-03-11T01:51:58.995Z,79.40
2018-03-11T01:54:30.216Z,79.40
2018-03-11T01:57:02.196Z,79.40
2018-03-11T01:59:33.392Z,79.40
2018-03-11T02:02:05.311Z,79.50
2018-03-11T02:04:36.605Z,79.50
2018-03-11T02:07:07.844Z,79.40
2018-03-11T02:09:39.116Z,79.40
2018-03-11T02:12:10.330Z,79.40
2018-03-11T02:14:41.544Z,80.10
2018-03-11T02:17:12.744Z,79.30
2018-03-11T02:19:43.920Z,79.30
2018-03-11T02:22:15.452Z,79.20
2018-03-11T02:24:46.696Z,79.20
2018-03-11T02:27:17.959Z,79.30
2018-03-11T02:29:49.129Z,79.30
2018-03-11T02:32:20.461Z,79.30
2018-03-11T02:34:51.655Z,79.30
2018-03-11T02:37:23.947Z,79.40
2018-03-11T02:39:55.158Z,79.20
2018-03-11T02:42:26.472Z,79.20
2018-03-11T02:44:57.688Z,79.20
2018-03-11T02:47:28.875Z,79.80
2018-03-11T02:50:00.073Z,79.80
2018-03-11T02:52:31.291Z,79.60
2018-03-11T02:55:02.586Z,79.40
2018-03-11T02:57:34.019Z,80.60
2018-03-11T03:00:05.200Z,79.90
2018-03-11T03:02:36.405Z,79.40
2018-03-11T03:05:07.676Z,79.60
2018-03-11T03:07:38.864Z,79.70
2018-03-11T03:10:10.795Z,79.70
2018-03-11T03:12:42.138Z,79.70
2018-03-11T03:15:13.330Z,79.20
2018-03-11T03:17:44.555Z,79.60
2018-03-11T03:20:16.481Z,79.70
2018-03-11T03:22:48.003Z,79.70
2018-03-11T03:25:19.234Z,80.00
2018-03-11T03:27:50.467Z,79.70
2018-03-11T03:30:22.388Z,79.90
2018-03-11T03:32:53.602Z,79.90
2018-03-11T03:35:24.760Z,79.50
2018-03-11T03:37:55.989Z,79.60
2018-03-11T03:40:27.416Z,79.90
2018-03-11T03:42:58.616Z,80.30
2018-03-11T03:45:30.248Z,80.00
2018-03-11T03:48:01.464Z,80.30
2018-03-11T03:50:32.712Z,79.90
2018-03-11T03:53:03.958Z,79.60
2018-03-11T03:55:35.151Z,79.80
2018-03-11T03:58:06.361Z,80.00
2018-03-11T04:00:37.579Z,81.20
2018-03-11T04:03:08.793Z,80.50
2018-03-11T04:05:40.796Z,81.30
2018-03-11T04:08:12.018Z,80.70
2018-03-11T04:10:43.260Z,80.60
2018-03-11T04:13:15.208Z,80.40
2018-03-11T04:15:47.498Z,80.50
2018-03-11T04:18:18.686Z,80.40
2018-03-11T04:20:49.928Z,80.60
2018-03-11T04:23:21.130Z,80.60
2018-03-11T04:25:52.405Z,80.10
2018-03-11T04:28:23.608Z,80.20
2018-03-11T04:30:55.545Z,80.40
2018-03-11T04:33:26.781Z,80.40
2018-03-11T04:35:58.005Z,80.00
2018-03-11T04:38:29.254Z,80.60
2018-03-11T04:41:00.436Z,80.40
2018-03-11T04:43:32.360Z,80.50
2018-03-11T04:46:03.564Z,80.50
2018-03-11T04:48:35.129Z,81.20
2018-03-11T04:51:06.305Z,80.30
2018-03-11T04:53:37.548Z,80.20
2018-03-11T04:56:08.756Z,80.50
2018-03-11T04:58:39.959Z,80.00
2018-03-11T05:01:11.277Z,81.00
2018-03-11T05:03:42.439Z,80.40
2018-03-11T05:06:14.463Z,80.40
2018-03-11T05:08:45.664Z,80.30
2018-03-11T05:11:17.655Z,80.50
2018-03-11T05:13:48.844Z,80.50
2018-03-11T05:16:20.442Z,80.20
2018-03-11T05:18:51.586Z,80.70
2018-03-11T05:21:23.140Z,80.00
2018-03-11T05:23:55.080Z,80.80
2018-03-11T05:26:26.640Z,80.80
2018-03-11T05:28:58.539Z,80.30
2018-03-11T05:31:29.742Z,80.40
2018-03-11T05:34:00.928Z,80.70
2018-03-11T05:36:32.126Z,80.60
2018-03-11T05:39:04.140Z,80.50
2018-03-11T05:41:35.305Z,80.50
2018-03-11T05:44:07.244Z,80.70
2018-03-11T05:46:38.484Z,80.70
2018-03-11T05:49:09.686Z,80.60
2018-03-11T05:51:41.243Z,80.90
2018-03-11T05:54:12.430Z,80.70
2018-03-11T05:56:43.625Z,80.80
2018-03-11T05:59:14.821Z,81.00
2018-03-11T06:01:46.162Z,81.00
2018-03-11T06:04:17.365Z,81.20
2018-03-11T06:06:48.602Z,81.00
2018-03-11T06:09:19.781Z,81.30
2018-03-11T06:11:50.975Z,81.60
2018-03-11T06:14:22.929Z,81.40
2018-03-11T06:16:54.892Z,81.30
2018-03-11T06:19:26.365Z,81.30
2018-03-11T06:21:57.560Z,81.00
2018-03-11T06:24:28.868Z,81.10
2018-03-11T06:27:00.076Z,81.10
2018-03-11T06:29:32.005Z,80.60
2018-03-11T06:32:03.201Z,80.70
2018-03-11T06:34:34.411Z,81.00
2018-03-11T06:37:06.351Z,80.80
2018-03-11T06:39:37.589Z,80.80
2018-03-11T06:42:08.764Z,81.10
2018-03-11T06:44:40.726Z,80.30
2018-03-11T06:47:12.005Z,80.30
2018-03-11T06:49:43.652Z,81.10
2018-03-11T06:52:14.875Z,80.00
2018-03-11T06:54:46.068Z,80.40
2018-03-11T06:57:17.309Z,80.00
2018-03-11T06:59:48.477Z,80.00
2018-03-11T07:02:19.701Z,79.90
2018-03-11T07:04:50.885Z,80.00
2018-03-11T07:07:22.054Z,79.40
2018-03-11T07:09:53.273Z,79.20
2018-03-11T07:12:25.277Z,79.00
2018-03-11T07:14:56.821Z,78.90
2018-03-11T07:17:28.027Z,79.20
2018-03-11T07:20:00.070Z,79.30
2018-03-11T07:22:31.278Z,79.20
2018-03-11T07:25:02.520Z,79.30
2018-03-11T07:27:33.802Z,78.90
2018-03-11T07:30:05.047Z,78.50
2018-03-11T07:32:36.435Z,78.20
2018-03-11T07:35:07.659Z,77.80
2018-03-11T07:37:38.910Z,78.50
2018-03-11T07:40:10.900Z,78.20
2018-03-11T07:42:42.097Z,78.20
2018-03-11T07:45:13.343Z,77.70
2018-03-11T07:47:46.097Z,77.40
2018-03-11T07:50:17.392Z,77.40
2018-03-11T07:52:49.312Z,77.20
2018-03-11T07:55:20.523Z,77.20
2018-03-11T07:57:51.781Z,77.40
2018-03-11T08:00:22.960Z,77.50
2018-03-11T08:02:54.152Z,77.00
2018-03-11T08:05:25.494Z,76.80
2018-03-11T08:07:56.729Z,76.40
2018-03-11T08:10:27.951Z,76.50
2018-03-11T08:12:59.886Z,76.90
2018-03-11T08:15:31.149Z,76.80
2018-03-11T08:18:02.371Z,77.10
2018-03-11T08:20:33.538Z,76.90
2018-03-11T08:23:04.743Z,75.40
2018-03-11T08:25:37.449Z,75.60
2018-03-11T08:28:10.223Z,75.80
2018-03-11T08:30:41.453Z,75.70
2018-03-11T08:33:12.709Z,75.50
2018-03-11T08:35:43.885Z,75.40
2018-03-11T08:38:15.476Z,75.60
2018-03-11T08:40:46.680Z,75.30
2018-03-11T08:43:18.729Z,74.50
2018-03-11T08:45:50.669Z,75.60
2018-03-11T08:48:23.226Z,74.80
2018-03-11T08:50:54.474Z,74.80
2018-03-11T08:53:25.769Z,74.60
2018-03-11T08:55:56.980Z,74.50
2018-03-11T08:58:28.508Z,74.40
2018-03-11T09:00:59.721Z,74.20
2018-03-11T09:03:31.664Z,74.60
2018-03-11T09:06:03.597Z,74.00
2018-03-11T09:08:34.818Z,73.90
2018-03-11T09:11:05.986Z,73.90
2018-03-11T09:13:37.309Z,73.50
2018-03-11T09:16:08.842Z,72.80
2018-03-11T09:18:40.015Z,72.80
2018-03-11T09:21:11.250Z,72.50
2018-03-11T09:23:42.497Z,73.00
2018-03-11T09:26:13.660Z,73.30
2018-03-11T09:28:46.428Z,73.30
2018-03-11T09:31:17.589Z,72.70
2018-03-11T09:33:48.846Z,72.50
2018-03-11T09:36:20.760Z,71.90
2018-03-11T09:38:52.016Z,71.90
2018-03-11T09:41:23.214Z,71.30
2018-03-11T09:43:54.425Z,72.10
2018-03-11T09:46:25.601Z,72.00
2018-03-11T09:48:56.933Z,71.50
2018-03-11T09:51:28.866Z,71.90
2018-03-11T09:54:00.152Z,71.80
2018-03-11T09:56:32.105Z,71.20
2018-03-11T09:59:03.342Z,71.20
2018-03-11T10:01:35.335Z,70.30
2018-03-11T10:04:06.887Z,70.30
2018-03-11T10:06:38.062Z,70.50
2018-03-11T10:09:10.929Z,70.10
2018-03-11T10:11:42.225Z,69.90
2018-03-11T10:14:14.245Z,69.70
2018-03-11T10:16:45.467Z,69.70
2018-03-11T10:19:16.736Z,69.60
2018-03-11T10:21:47.917Z,68.90
2018-03-11T10:24:19.311Z,68.20
2018-03-11T10:26:50.516Z,67.90
2018-03-11T10:29:22.005Z,67.80
2018-03-11T10:31:53.206Z,67.90
2018-03-11T10:34:25.197Z,67.40
2018-03-11T10:36:56.473Z,67.30
2018-03-11T10:39:27.728Z,66.30
2018-03-11T10:41:58.900Z,66.10
2018-03-11T10:44:30.115Z,65.70
2018-03-11T10:47:01.290Z,65.50
2018-03-11T10:49:33.314Z,66.00
2018-03-11T10:52:04.521Z,66.00
2018-03-11T10:54:35.838Z,65.70
2018-03-11T10:57:22.734Z,65.30
2018-03-11T10:59:53.919Z,65.20
2018-03-11T11:02:27.020Z,64.30
2018-03-11T11:04:59.212Z,64.60
2018-03-11T11:07:30.409Z,63.90
2018-03-11T11:10:02.477Z,63.40
2018-03-11T11:12:33.708Z,63.30
2018-03-11T11:15:05.689Z,63.40
2018-03-11T11:17:36.871Z,63.40
2018-03-11T11:20:08.128Z,64.30
2018-03-11T11:22:39.306Z,64.30
2018-03-11T11:25:10.590Z,64.50
2018-03-11T11:27:41.780Z,63.50
2018-03-11T11:30:13.793Z,63.70
2018-03-11T11:32:45.045Z,62.80
2018-03-11T11:35:16.273Z,62.00
2018-03-11T11:37:47.830Z,61.50
2018-03-11T11:40:19.022Z,61.40
2018-03-11T11:42:50.406Z,61.50
2018-03-11T11:45:21.622Z,61.20
2018-03-11T11:47:53.649Z,61.70
2018-03-11T11:50:25.094Z,61.70
2018-03-11T11:52:56.388Z,61.20
2018-03-11T11:55:28.326Z,61.40
2018-03-11T11:58:00.399Z,61.20
2018-03-11T12:00:32.372Z,61.40
2018-03-11T12:03:04.375Z,61.40
2018-03-11T12:05:35.622Z,61.40
2018-03-11T12:08:06.870Z,61.60
2018-03-11T12:10:38.285Z,62.00
2018-03-11T12:13:10.194Z,60.90
2018-03-11T12:15:41.854Z,60.90
2018-03-11T12:18:13.072Z,60.10
2018-03-11T12:20:44.606Z,60.00
2018-03-11T12:23:15.833Z,59.90
2018-03-11T12:25:47.914Z,59.50
2018-03-11T12:28:19.175Z,59.40
2018-03-11T12:30:50.454Z,59.40
2018-03-11T12:33:21.669Z,59.50
2018-03-11T12:35:52.902Z,59.60
2018-03-11T12:38:24.130Z,59.60
2018-03-11T12:40:55.372Z,59.40
2018-03-11T12:43:26.663Z,59.70
2018-03-11T12:45:57.942Z,59.30
2018-03-11T12:48:30.149Z,59.40
2018-03-11T12:51:01.800Z,59.40
2018-03-11T12:53:33.033Z,59.60
2018-03-11T12:56:04.248Z,59.80
2018-03-11T12:58:36.209Z,59.70
2018-03-11T13:01:07.479Z,59.70
2018-03-11T13:03:38.697Z,59.40
2018-03-11T13:06:10.682Z,59.40
2018-03-11T13:08:41.954Z,59.40
2018-03-11T13:11:13.485Z,59.40
2018-03-11T13:13:44.899Z,59.70
2018-03-11T13:16:16.330Z,59.40
2018-03-11T13:18:48.362Z,60.10
2018-03-11T13:21:19.612Z,60.10
2018-03-11T13:23:50.844Z,60.10
2018-03-11T13:26:22.073Z,60.60
2018-03-11T13:28:53.280Z,60.60
2018-03-11T13:31:24.565Z,60.30
2018-03-11T13:34:08.260Z,60.40
2018-03-11T13:36:39.584Z,59.60
2018-03-11T13:39:23.089Z,59.60
2018-03-11T13:41:54.385Z,59.60
2018-03-11T13:44:25.644Z,59.40
2018-03-11T13:47:13.804Z,58.80
2018-03-11T13:49:45.009Z,58.50
2018-03-11T13:52:30.221Z,59.40
2018-03-11T13:55:01.418Z,59.20
2018-03-11T14:00:46.657Z,58.80
2018-03-11T14:03:17.908Z,59.30
2018-03-11T14:05:49.145Z,59.00
2018-03-11T14:08:20.712Z,58.90
2018-03-11T14:10:52.093Z,58.80
2018-03-11T14:13:23.423Z,58.20
2018-03-11T14:15:54.646Z,58.60
2018-03-11T14:18:25.829Z,58.30
2018-03-11T14:20:57.111Z,58.50
2018-03-11T14:23:29.106Z,58.20
2018-03-11T14:26:00.593Z,58.20
2018-03-11T14:28:31.856Z,58.20
2018-03-11T14:31:03.854Z,58.50
2018-03-11T14:33:35.062Z,58.50
2018-03-11T14:36:07.055Z,58.60
2018-03-11T14:38:38.277Z,58.10
2018-03-11T14:41:10.297Z,59.00
2018-03-11T14:43:41.509Z,58.30
2018-03-11T14:46:12.828Z,58.60
2018-03-11T14:48:44.071Z,58.50
2018-03-11T14:51:15.311Z,58.20
2018-03-11T14:53:47.305Z,57.90
2018-03-11T14:56:18.513Z,57.90
2018-03-11T14:58:49.755Z,57.70
2018-03-11T15:01:21.063Z,57.90
2018-03-11T15:03:52.299Z,57.80
2018-03-11T15:06:23.621Z,58.00
2018-03-11T15:08:55.624Z,58.70
2018-03-11T15:11:26.854Z,58.70
2018-03-11T15:13:58.059Z,58.20
2018-03-11T15:16:30.039Z,58.40
2018-03-11T15:19:02.099Z,58.40
2018-03-11T15:21:33.359Z,58.40
2018-03-11T15:24:04.589Z,58.40
2018-03-11T15:26:37.083Z,58.10
2018-03-11T15:29:08.378Z,58.10
2018-03-11T15:31:40.364Z,58.50
2018-03-11T15:34:12.492Z,58.40
2018-03-11T15:36:43.777Z,58.60
2018-03-11T15:39:15.054Z,59.00
2018-03-11T15:41:46.290Z,59.00
2018-03-11T15:44:17.557Z,59.20
2018-03-11T15:46:48.760Z,59.50
2018-03-11T15:49:20.055Z,59.30
2018-03-11T15:51:51.274Z,59.60
2018-03-11T15:54:22.559Z,59.70
2018-03-11T15:56:54.515Z,60.90
2018-03-11T15:59:26.538Z,60.60
2018-03-11T16:01:57.794Z,60.60
2018-03-11T16:04:29.042Z,60.60
2018-03-11T16:07:00.286Z,60.30
2018-03-11T16:09:31.523Z,60.80
2018-03-11T16:12:02.776Z,60.80
2018-03-11T16:14:33.962Z,60.70
2018-03-11T16:17:05.193Z,60.60
2018-03-11T16:19:37.109Z,60.70
2018-03-11T16:22:08.417Z,60.70
2018-03-11T16:24:39.896Z,61.40
2018-03-11T16:27:11.607Z,61.40
2018-03-11T16:29:43.523Z,61.80
2018-03-11T16:32:14.744Z,61.30
2018-03-11T16:34:45.975Z,61.50
2018-03-11T16:37:17.228Z,61.80
2018-03-11T16:39:48.426Z,62.30
2018-03-11T16:42:19.757Z,62.20
2018-03-11T16:44:50.998Z,62.20
2018-03-11T16:47:22.181Z,62.50
2018-03-11T16:49:53.427Z,62.60
2018-03-11T16:52:25.391Z,62.50
2018-03-11T16:54:57.346Z,62.00
2018-03-11T16:57:28.643Z,62.80
2018-03-11T16:59:59.935Z,63.90
2018-03-11T17:02:31.285Z,63.20
2018-03-11T17:05:03.893Z,63.60
2018-03-11T17:07:35.416Z,63.50
2018-03-11T17:10:07.434Z,64.00
2018-03-11T17:12:39.355Z,64.30
2018-03-11T17:15:10.620Z,64.30
2018-03-11T17:17:41.812Z,64.60
2018-03-11T17:20:13.043Z,64.40
2018-03-11T17:22:44.299Z,64.60
2018-03-11T17:25:15.656Z,64.90
2018-03-11T17:27:47.872Z,65.10
2018-03-11T17:30:19.096Z,65.00
2018-03-11T17:32:50.706Z,64.90
2018-03-11T17:35:21.865Z,64.80
2018-03-11T17:37:53.870Z,65.00
2018-03-11T17:40:25.071Z,64.60
2018-03-11T17:42:57.275Z,65.00
2018-03-11T17:45:28.436Z,65.00
2018-03-11T17:47:59.666Z,65.00
2018-03-11T17:50:30.921Z,64.80
2018-03-11T17:53:02.969Z,65.00
2018-03-11T17:55:34.180Z,64.90
2018-03-11T17:58:06.121Z,65.00
2018-03-11T18:00:37.360Z,65.00
2018-03-11T18:03:08.710Z,65.20
2018-03-11T18:05:39.924Z,65.40
2018-03-11T18:08:11.167Z,65.30
2018-03-11T18:10:43.126Z,66.00
2018-03-11T18:13:14.363Z,65.00
2018-03-11T18:15:45.676Z,65.30
2018-03-11T18:18:17.641Z,66.00
2018-03-11T18:20:49.638Z,65.50
2018-03-11T18:23:21.028Z,65.40
2018-03-11T18:25:52.210Z,65.80
2018-03-11T18:28:23.479Z,66.00
2018-03-11T18:30:54.687Z,66.20
2018-03-11T18:33:26.628Z,66.10
2018-03-11T18:35:58.572Z,66.20
2018-03-11T18:38:29.809Z,66.20
2018-03-11T18:41:01.068Z,66.20
2018-03-11T18:43:32.712Z,65.90
2018-03-11T18:46:03.917Z,66.00
2018-03-11T18:48:35.180Z,66.10
2018-03-11T18:51:06.377Z,66.10
2018-03-11T18:53:38.355Z,66.00
2018-03-11T18:56:09.572Z,66.00
2018-03-11T18:58:41.509Z,65.70
2018-03-11T19:01:12.753Z,65.70
2018-03-11T19:03:43.992Z,65.60
2018-03-11T19:06:15.237Z,65.80
2018-03-11T19:08:46.472Z,65.70
2018-03-11T19:11:17.705Z,65.80
2018-03-11T19:13:48.950Z,65.90
2018-03-11T19:16:20.157Z,65.90
2018-03-11T19:18:51.732Z,65.90
2018-03-11T19:21:22.947Z,66.40
2018-03-11T19:23:55.036Z,66.00
2018-03-11T19:26:26.237Z,66.00
2018-03-11T19:28:57.589Z,65.80
2018-03-11T19:31:29.544Z,65.40
2018-03-11T19:34:01.132Z,65.40
2018-03-11T19:36:32.340Z,65.00
2018-03-11T19:39:03.574Z,65.10
2018-03-11T19:41:35.523Z,65.10
2018-03-11T19:44:08.025Z,64.90
2018-03-11T19:46:39.230Z,64.90
2018-03-11T19:49:10.468Z,64.80
2018-03-11T19:51:41.653Z,64.90
2018-03-11T19:54:13.652Z,64.70
2018-03-11T19:56:44.930Z,64.60
2018-03-11T19:59:16.102Z,64.60
2018-03-11T20:01:47.416Z,64.80
2018-03-11T20:04:18.655Z,65.50
2018-03-11T20:06:49.898Z,65.50
2018-03-11T20:09:21.239Z,65.40
2018-03-11T20:11:52.456Z,65.10
2018-03-11T20:14:23.666Z,65.50
2018-03-11T20:16:55.158Z,64.80
2018-03-11T20:19:26.344Z,64.50
2018-03-11T20:22:00.389Z,63.70
2018-03-11T20:24:32.382Z,63.00
2018-03-11T20:27:03.600Z,63.50
2018-03-11T20:29:34.919Z,63.80
2018-03-11T20:32:06.157Z,63.80
2018-03-11T20:34:37.387Z,64.20
2018-03-11T20:37:08.596Z,64.10
2018-03-11T20:39:39.806Z,64.10
2018-03-11T20:42:11.041Z,64.50
2018-03-11T20:44:42.402Z,64.60
2018-03-11T20:47:14.339Z,65.70
2018-03-11T20:49:45.857Z,65.10
2018-03-11T20:52:17.083Z,65.10
2018-03-11T20:54:48.667Z,65.10
2018-03-11T20:57:19.820Z,65.40
2018-03-11T20:59:51.050Z,65.50
2018-03-11T21:02:22.240Z,65.70
2018-03-11T21:04:54.247Z,65.90
2018-03-11T21:07:25.461Z,65.50
2018-03-11T21:09:57.740Z,65.70
2018-03-11T21:12:29.013Z,65.50
2018-03-11T21:15:00.245Z,65.30
2018-03-11T21:17:31.464Z,65.50
2018-03-11T21:20:03.048Z,65.80
2018-03-11T21:22:34.285Z,66.60
2018-03-11T21:25:05.567Z,65.40
2018-03-11T21:27:36.748Z,65.70
2018-03-11T21:30:08.711Z,65.40
2018-03-11T21:32:39.893Z,65.40
2018-03-11T21:35:11.414Z,66.60
2018-03-11T21:37:42.602Z,65.90
2018-03-11T21:40:13.841Z,65.70
2018-03-11T21:42:45.078Z,65.90
2018-03-11T21:45:16.317Z,65.70
2018-03-11T21:47:47.561Z,65.70
2018-03-11T21:50:18.812Z,65.80
2018-03-11T21:52:50.037Z,66.10
2018-03-11T21:55:21.206Z,66.40
2018-03-11T21:57:52.713Z,66.40
2018-03-11T22:00:23.893Z,66.80
2018-03-11T22:02:55.134Z,67.00
2018-03-11T22:05:26.403Z,67.10
2018-03-11T22:07:57.803Z,67.10
2018-03-11T22:10:28.996Z,66.90
2018-03-11T22:13:00.259Z,67.00
2018-03-11T22:15:32.255Z,67.10
2018-03-11T22:18:03.459Z,67.00
2018-03-11T22:20:35.416Z,68.10
2018-03-11T22:23:07.419Z,67.20
2018-03-11T22:25:38.700Z,67.30
2018-03-11T22:28:09.930Z,67.20
2018-03-11T22:30:41.169Z,67.30
2018-03-11T22:33:12.416Z,67.60
2018-03-11T22:35:43.619Z,67.40
2018-03-11T22:38:15.549Z,67.00
2018-03-11T22:40:46.780Z,66.90
2018-03-11T22:43:18.189Z,67.00
2018-03-11T22:45:49.477Z,67.40
2018-03-11T22:48:20.682Z,67.10
2018-03-11T22:50:51.874Z,67.20
2018-03-11T22:53:23.860Z,67.80
2018-03-11T22:55:55.776Z,67.40
2018-03-11T22:58:27.207Z,67.30
2018-03-11T23:00:58.401Z,67.90
2018-03-11T23:03:29.697Z,67.50
2018-03-11T23:06:00.894Z,67.40
2018-03-11T23:08:32.886Z,67.80
2018-03-11T23:11:04.187Z,67.70
2018-03-11T23:13:35.440Z,67.80
2018-03-11T23:16:07.439Z,68.40
2018-03-11T23:18:50.997Z,68.20
2018-03-11T23:21:22.187Z,67.80
2018-03-11T23:23:54.227Z,68.50
2018-03-11T23:26:25.560Z,68.50
2018-03-11T23:28:57.061Z,68.30
2018-03-11T23:31:28.252Z,68.40
2018-03-11T23:33:59.772Z,68.30
2018-03-11T23:36:31.011Z,68.60
2018-03-11T23:39:02.192Z,68.70
2018-03-11T23:41:33.574Z,68.90
2018-03-11T23:44:04.813Z,68.90
2018-03-11T23:46:36.820Z,68.90
2018-03-11T23:49:08.003Z,68.80
2018-03-11T23:51:39.409Z,68.90
2018-03-11T23:54:10.599Z,68.90
2018-03-11T23:56:42.225Z,69.00
2018-03-11T23:59:13.390Z,69.30
